| time (UTC) | temp F | wind direction | speed MPH | gust MPH | rain 1hr in | rain 24hr in | rain mn in | humidity % | barometer mb |
| 20260505181541 | 79 | 171 | 7.0 | 23.0 | 0.00 | 0.00 | 0.00 | 34 | 1010.4 |
| 20260505181028 | 79 | 162 | 10.0 | 23.0 | 0.00 | 0.00 | 0.00 | 33 | 1010.5 |
| 20260505180533 | 79 | 194 | 10.0 | 21.0 | 0.00 | 0.00 | 0.00 | 32 | 1010.6 |
| 20260505180047 | 79 | 218 | 8.0 | 19.0 | 0.00 | 0.00 | 0.00 | 36 | 1010.8 |
| 20260505175531 | 79 | 163 | 10.0 | 25.0 | 0.00 | 0.00 | 0.00 | 33 | 1010.8 |
| 20260505175032 | 79 | 196 | 11.0 | 25.0 | 0.00 | 0.00 | 0.00 | 36 | 1010.7 |
| 20260505174558 | 79 | 207 | 6.0 | 20.0 | 0.00 | 0.00 | 0.00 | 34 | 1010.8 |
| 20260505174033 | 78 | 159 | 8.0 | 20.0 | 0.00 | 0.00 | 0.00 | 33 | 1010.9 |
| 20260505173532 | 78 | 219 | 7.0 | 18.0 | 0.00 | 0.00 | 0.00 | 37 | 1010.9 |
| 20260505173044 | 78 | 136 | 12.0 | 18.0 | 0.00 | 0.00 | 0.00 | 34 | 1010.9 |
| 20260505172531 | 78 | 176 | 8.0 | 17.0 | 0.00 | 0.00 | 0.00 | 34 | 1011.0 |
| 20260505172031 | 78 | 174 | 6.0 | 13.0 | 0.00 | 0.00 | 0.00 | 36 | 1010.9 |
| 20260505171548 | 78 | 199 | 6.0 | 18.0 | 0.00 | 0.00 | 0.00 | 34 | 1010.9 |
| 20260505171032 | 78 | 183 | 8.0 | 18.0 | 0.00 | 0.00 | 0.00 | 36 | 1011.0 |
| 20260505170531 | 78 | 235 | 8.0 | 18.0 | 0.00 | 0.00 | 0.00 | 35 | 1011.1 |
| 20260505170040 | 78 | 192 | 7.0 | 18.0 | 0.00 | 0.00 | 0.00 | 36 | 1011.1 |
| 20260505165531 | 78 | 162 | 7.0 | 16.0 | 0.00 | 0.00 | 0.00 | 38 | 1011.2 |
| 20260505165031 | 77 | 212 | 7.0 | 16.0 | 0.00 | 0.00 | 0.00 | 39 | 1011.3 |
| 20260505164544 | 77 | 180 | 5.0 | 17.0 | 0.00 | 0.00 | 0.00 | 39 | 1011.3 |
| 20260505164032 | 77 | 206 | 8.0 | 20.0 | 0.00 | 0.00 | 0.00 | 41 | 1011.6 |
| 20260505163532 | 77 | 202 | 8.0 | 20.0 | 0.00 | 0.00 | 0.00 | 38 | 1011.7 |
| 20260505163039 | 77 | 172 | 7.0 | 19.0 | 0.00 | 0.00 | 0.00 | 40 | 1011.4 |
| 20260505162532 | 76 | 188 | 9.0 | 15.0 | 0.00 | 0.00 | 0.00 | 42 | 1011.6 |
| 20260505162032 | 77 | 166 | 8.0 | 19.0 | 0.00 | 0.00 | 0.00 | 40 | 1011.6 |
| 20260505161545 | 77 | 196 | 6.0 | 19.0 | 0.00 | 0.00 | 0.00 | 42 | 1011.8 |
| 20260505161032 | 77 | 148 | 7.0 | 13.0 | 0.00 | 0.00 | 0.00 | 40 | 1011.5 |
| 20260505160532 | 77 | 196 | 7.0 | 14.0 | 0.00 | 0.00 | 0.00 | 41 | 1011.5 |
| 20260505153043 | 77 | 284 | 2.0 | 14.0 | 0.00 | 0.00 | 0.00 | 42 | 1011.8 |
| 20260505152534 | 76 | 286 | 5.0 | 14.0 | 0.00 | 0.00 | 0.00 | 45 | 1011.9 |
| 20260505152031 | 76 | 221 | 3.0 | 13.0 | 0.00 | 0.00 | 0.00 | 44 | 1011.7 |
| 20260505151540 | 76 | 124 | 4.0 | 13.0 | 0.00 | 0.00 | 0.00 | 41 | 1011.6 |
| 20260505151031 | 76 | 157 | 5.0 | 15.0 | 0.00 | 0.00 | 0.00 | 41 | 1011.6 |
| 20260505150532 | 76 | 221 | 5.0 | 15.0 | 0.00 | 0.00 | 0.00 | 42 | 1011.6 |
| 20260505140527 | 73 | 254 | 5.0 | 14.0 | 0.00 | 0.00 | 0.00 | 47 | 1011.9 |
| 20260505140107 | 72 | 226 | 4.0 | 16.0 | 0.00 | 0.00 | 0.00 | 47 | 1011.9 |
| 20260505125029 | 65 | 204 | 4.0 | 9.0 | 0.00 | 0.00 | 0.00 | 58 | 1012.8 |
| 20260505124541 | 65 | 191 | 6.0 | 10.0 | 0.00 | 0.00 | 0.00 | 57 | 1012.7 |
| 20260505124030 | 65 | 180 | 4.0 | 10.0 | 0.00 | 0.00 | 0.00 | 58 | 1012.6 |
| 20260505123529 | 64 | 184 | 5.0 | 10.0 | 0.00 | 0.00 | 0.00 | 58 | 1012.5 |
| 20260505123049 | 64 | 184 | 5.0 | 10.0 | 0.00 | 0.00 | 0.00 | 59 | 1012.5 |
| 20260505122529 | 63 | 219 | 5.0 | 9.0 | 0.00 | 0.00 | 0.00 | 60 | 1012.5 |
| 20260505122031 | 63 | 225 | 4.0 | 9.0 | 0.00 | 0.00 | 0.00 | 61 | 1012.6 |
| 20260505121542 | 62 | 204 | 3.0 | 9.0 | 0.00 | 0.00 | 0.00 | 62 | 1012.5 |
| 20260505121029 | 62 | 176 | 3.0 | 10.0 | 0.00 | 0.00 | 0.00 | 63 | 1012.5 |
| 20260505120528 | 61 | 161 | 5.0 | 12.0 | 0.00 | 0.00 | 0.00 | 62 | 1012.3 |
| 20260505120046 | 61 | 153 | 5.0 | 13.0 | 0.00 | 0.00 | 0.00 | 62 | 1012.2 |
| 20260505115529 | 61 | 219 | 5.0 | 13.0 | 0.00 | 0.00 | 0.00 | 63 | 1012.2 |
| 20260505115029 | 60 | 163 | 7.0 | 11.0 | 0.00 | 0.00 | 0.00 | 63 | 1012.2 |
| 20260505114550 | 60 | 177 | 5.0 | 14.0 | 0.00 | 0.00 | 0.00 | 64 | 1012.2 |
| 20260505114030 | 60 | 217 | 7.0 | 14.0 | 0.00 | 0.00 | 0.00 | 64 | 1012.3 |
| 20260505113529 | 60 | 205 | 7.0 | 14.0 | 0.00 | 0.00 | 0.00 | 64 | 1012.3 |
| 20260505113047 | 60 | 183 | 6.0 | 12.0 | 0.00 | 0.00 | 0.00 | 64 | 1012.2 |
| 20260505112529 | 59 | 211 | 7.0 | 12.0 | 0.00 | 0.00 | 0.00 | 65 | 1012.1 |
| 20260505112029 | 59 | 219 | 4.0 | 12.0 | 0.00 | 0.00 | 0.00 | 65 | 1012.2 |
| 20260505111543 | 59 | 190 | 6.0 | 12.0 | 0.00 | 0.00 | 0.00 | 66 | 1012.0 |
| 20260505111028 | 59 | 221 | 6.0 | 14.0 | 0.00 | 0.00 | 0.00 | 66 | 1012.0 |
| 20260505110529 | 59 | 223 | 6.0 | 14.0 | 0.00 | 0.00 | 0.00 | 66 | 1011.7 |
| 20260505102029 | 58 | 175 | 5.0 | 8.0 | 0.00 | 0.00 | 0.00 | 68 | 1011.2 |
| 20260505101548 | 58 | 196 | 5.0 | 10.0 | 0.00 | 0.00 | 0.00 | 68 | 1011.1 |
| 20260505101029 | 58 | 173 | 5.0 | 10.0 | 0.00 | 0.00 | 0.00 | 68 | 1011.1 |
| 20260505100530 | 58 | 184 | 5.0 | 11.0 | 0.00 | 0.00 | 0.00 | 68 | 1011.1 |
| 20260505100045 | 58 | 160 | 6.0 | 13.0 | 0.00 | 0.00 | 0.00 | 68 | 1011.1 |
| 20260505095530 | 58 | 203 | 5.0 | 13.0 | 0.00 | 0.00 | 0.00 | 67 | 1011.1 |
| 20260505095034 | 58 | 186 | 6.0 | 9.0 | 0.00 | 0.00 | 0.00 | 68 | 1011.1 |
| 20260505094544 | 58 | 205 | 5.0 | 12.0 | 0.00 | 0.00 | 0.00 | 68 | 1011.0 |
| 20260505094031 | 58 | 192 | 5.0 | 12.0 | 0.00 | 0.00 | 0.00 | 68 | 1011.0 |
| 20260505093529 | 58 | 197 | 5.0 | 10.0 | 0.00 | 0.00 | 0.00 | 68 | 1011.0 |
| 20260505093050 | 58 | 193 | 5.0 | 9.0 | 0.00 | 0.00 | 0.00 | 69 | 1011.0 |
| 20260505092529 | 58 | 191 | 3.0 | 10.0 | 0.00 | 0.00 | 0.00 | 69 | 1011.1 |
| 20260505092029 | 58 | 194 | 5.0 | 10.0 | 0.00 | 0.00 | 0.00 | 69 | 1011.1 |
| 20260505091545 | 58 | 198 | 5.0 | 10.0 | 0.00 | 0.00 | 0.00 | 69 | 1011.0 |
| 20260505091028 | 58 | 219 | 4.0 | 9.0 | 0.00 | 0.00 | 0.00 | 69 | 1011.0 |
| 20260505090530 | 58 | 168 | 4.0 | 9.0 | 0.00 | 0.00 | 0.00 | 69 | 1010.9 |
| 20260505090040 | 58 | 159 | 4.0 | 9.0 | 0.00 | 0.00 | 0.00 | 69 | 1010.8 |
| 20260505085532 | 58 | 202 | 3.0 | 8.0 | 0.00 | 0.00 | 0.00 | 69 | 1010.9 |
| 20260505085033 | 58 | 197 | 4.0 | 14.0 | 0.00 | 0.00 | 0.00 | 69 | 1010.9 |
| 20260505084538 | 58 | 195 | 5.0 | 14.0 | 0.00 | 0.00 | 0.00 | 69 | 1010.9 |
| 20260505084030 | 58 | 182 | 4.0 | 10.0 | 0.00 | 0.00 | 0.00 | 68 | 1010.9 |
| 20260505083529 | 58 | 211 | 4.0 | 10.0 | 0.00 | 0.00 | 0.00 | 68 | 1011.0 |
| 20260505083049 | 59 | 207 | 4.0 | 10.0 | 0.00 | 0.00 | 0.00 | 68 | 1011.0 |
| 20260505082533 | 59 | 185 | 5.0 | 10.0 | 0.00 | 0.00 | 0.00 | 68 | 1011.0 |
| 20260505082029 | 59 | 146 | 4.0 | 9.0 | 0.00 | 0.00 | 0.00 | 67 | 1011.0 |
| 20260505081541 | 59 | 161 | 5.0 | 8.0 | 0.00 | 0.00 | 0.00 | 66 | 1010.9 |
| 20260505081031 | 60 | 173 | 4.0 | 9.0 | 0.00 | 0.00 | 0.00 | 66 | 1010.8 |
| 20260505080529 | 60 | 165 | 3.0 | 10.0 | 0.00 | 0.00 | 0.00 | 66 | 1010.8 |
| 20260505080044 | 60 | 156 | 5.0 | 10.0 | 0.00 | 0.00 | 0.00 | 65 | 1010.7 |
| 20260505075531 | 61 | 181 | 4.0 | 8.0 | 0.00 | 0.00 | 0.00 | 65 | 1010.7 |
| 20260505075030 | 61 | 184 | 4.0 | 10.0 | 0.00 | 0.00 | 0.00 | 64 | 1010.7 |
| 20260505074539 | 61 | 202 | 4.0 | 10.0 | 0.00 | 0.00 | 0.00 | 64 | 1010.6 |
| 20260505074030 | 61 | 215 | 4.0 | 11.0 | 0.00 | 0.00 | 0.00 | 64 | 1010.6 |
| 20260505073530 | 61 | 205 | 3.0 | 11.0 | 0.00 | 0.00 | 0.00 | 63 | 1010.5 |
| 20260505073052 | 61 | 171 | 5.0 | 10.0 | 0.00 | 0.00 | 0.00 | 64 | 1010.5 |
| 20260505072529 | 61 | 199 | 4.0 | 9.0 | 0.00 | 0.00 | 0.00 | 64 | 1010.5 |
| 20260505072029 | 61 | 180 | 5.0 | 9.0 | 0.00 | 0.00 | 0.00 | 64 | 1010.5 |
| 20260505071553 | 61 | 242 | 4.0 | 7.0 | 0.00 | 0.00 | 0.00 | 64 | 1010.4 |
| 20260505071031 | 61 | 198 | 3.0 | 8.0 | 0.00 | 0.00 | 0.00 | 65 | 1010.5 |
| 20260505070529 | 60 | 186 | 4.0 | 8.0 | 0.00 | 0.00 | 0.00 | 65 | 1010.6 |
| 20260505070041 | 60 | 171 | 4.0 | 11.0 | 0.00 | 0.00 | 0.00 | 65 | 1010.6 |
| 20260505065529 | 60 | 196 | 4.0 | 11.0 | 0.00 | 0.00 | 0.00 | 65 | 1010.6 |
| 20260505065028 | 60 | 211 | 4.0 | 11.0 | 0.00 | 0.00 | 0.00 | 65 | 1010.7 |
| 20260505064542 | 60 | 175 | 4.0 | 10.0 | 0.00 | 0.00 | 0.00 | 65 | 1010.6 |
| 20260505064029 | 60 | 159 | 3.0 | 9.0 | 0.00 | 0.00 | 0.00 | 65 | 1010.7 |
| 20260505063528 | 60 | 175 | 4.0 | 9.0 | 0.00 | 0.00 | 0.00 | 65 | 1010.8 |
| 20260505063041 | 60 | 161 | 2.0 | 6.0 | 0.00 | 0.00 | 0.00 | 65 | 1010.7 |
| 20260505062531 | 60 | 202 | 2.0 | 6.0 | 0.00 | 0.00 | 0.00 | 65 | 1010.8 |
| 20260505062027 | 60 | 207 | 2.0 | 5.0 | 0.00 | 0.00 | 0.00 | 65 | 1010.8 |
| 20260505061538 | 60 | 181 | 2.0 | 4.0 | 0.00 | 0.00 | 0.00 | 65 | 1010.8 |
| 20260505061028 | 60 | 160 | 2.0 | 7.0 | 0.00 | 0.00 | 0.00 | 65 | 1010.9 |
| 20260505060529 | 61 | 210 | 3.0 | 6.0 | 0.00 | 0.00 | 0.00 | 65 | 1010.8 |
| 20260505060046 | 61 | 188 | 3.0 | 6.0 | 0.00 | 0.00 | 0.00 | 64 | 1010.8 |
| 20260505055532 | 61 | 169 | 3.0 | 6.0 | 0.00 | 0.00 | 0.00 | 64 | 1010.8 |
| 20260505055029 | 61 | 171 | 3.0 | 6.0 | 0.00 | 0.00 | 0.00 | 63 | 1010.9 |
| 20260505054549 | 61 | 192 | 2.0 | 5.0 | 0.00 | 0.00 | 0.00 | 63 | 1010.8 |
| 20260505054028 | 62 | 183 | 2.0 | 6.0 | 0.00 | 0.00 | 0.00 | 62 | 1010.9 |
| 20260505053528 | 62 | 186 | 3.0 | 10.0 | 0.00 | 0.00 | 0.00 | 62 | 1011.0 |
| 20260505053045 | 62 | 193 | 5.0 | 10.0 | 0.00 | 0.00 | 0.00 | 61 | 1011.0 |
| 20260505052527 | 62 | 203 | 5.0 | 11.0 | 0.00 | 0.00 | 0.00 | 61 | 1011.0 |
| 20260505052027 | 62 | 215 | 4.0 | 11.0 | 0.00 | 0.00 | 0.00 | 61 | 1011.0 |
| 20260505051557 | 62 | 178 | 5.0 | 11.0 | 0.00 | 0.00 | 0.00 | 61 | 1010.9 |
| 20260505051028 | 62 | 196 | 7.0 | 13.0 | 0.00 | 0.00 | 0.00 | 61 | 1010.8 |
| 20260505050530 | 62 | 211 | 4.0 | 13.0 | 0.00 | 0.00 | 0.00 | 61 | 1010.8 |
| 20260505041544 | 62 | 175 | 3.0 | 7.0 | 0.00 | 0.00 | 0.00 | 57 | 1010.8 |
| 20260505041030 | 62 | 160 | 3.0 | 8.0 | 0.00 | 0.00 | 0.00 | 57 | 1010.8 |
| 20260505040530 | 62 | 202 | 3.0 | 8.0 | 0.00 | 0.00 | 0.00 | 57 | 1010.8 |
| 20260505040044 | 62 | 189 | 3.0 | 8.0 | 0.00 | 0.00 | 0.00 | 57 | 1010.8 |
| 20260505035532 | 62 | 206 | 3.0 | 7.0 | 0.00 | 0.00 | 0.00 | 57 | 1010.7 |
| 20260505035030 | 62 | 206 | 3.0 | 7.0 | 0.00 | 0.00 | 0.00 | 57 | 1010.8 |
| 20260505034541 | 62 | 210 | 4.0 | 10.0 | 0.00 | 0.00 | 0.00 | 57 | 1010.8 |
| 20260505034030 | 62 | 188 | 5.0 | 10.0 | 0.00 | 0.00 | 0.00 | 57 | 1010.7 |
| 20260505033529 | 62 | 214 | 4.0 | 9.0 | 0.00 | 0.00 | 0.00 | 57 | 1010.7 |
| 20260505033039 | 62 | 180 | 4.0 | 8.0 | 0.00 | 0.00 | 0.00 | 57 | 1010.8 |
| 20260505032530 | 62 | 184 | 3.0 | 6.0 | 0.00 | 0.00 | 0.00 | 57 | 1010.7 |
| 20260505032030 | 62 | 191 | 3.0 | 7.0 | 0.00 | 0.00 | 0.00 | 57 | 1010.6 |
| 20260505031552 | 62 | 205 | 2.0 | 7.0 | 0.00 | 0.00 | 0.00 | 56 | 1010.7 |
| 20260505031027 | 62 | 209 | 3.0 | 9.0 | 0.00 | 0.00 | 0.00 | 56 | 1010.7 |
| 20260505030530 | 62 | 167 | 3.0 | 9.0 | 0.00 | 0.00 | 0.00 | 55 | 1010.7 |
| 20260505030044 | 63 | 143 | 3.0 | 9.0 | 0.00 | 0.00 | 0.00 | 55 | 1010.7 |
| 20260505025531 | 63 | 184 | 2.0 | 5.0 | 0.00 | 0.00 | 0.00 | 55 | 1010.8 |
| 20260505025026 | 63 | 186 | 3.0 | 5.0 | 0.00 | 0.00 | 0.00 | 54 | 1010.8 |
| 20260505024543 | 63 | 154 | 1.0 | 4.0 | 0.00 | 0.00 | 0.00 | 54 | 1010.8 |
| 20260505024029 | 63 | 175 | 2.0 | 5.0 | 0.00 | 0.00 | 0.00 | 54 | 1010.9 |
| 20260505023531 | 64 | 152 | 2.0 | 7.0 | 0.00 | 0.00 | 0.00 | 53 | 1010.9 |
| 20260505023046 | 64 | 144 | 2.0 | 7.0 | 0.00 | 0.00 | 0.00 | 53 | 1010.8 |
| 20260505022526 | 64 | 198 | 2.0 | 5.0 | 0.00 | 0.00 | 0.00 | 52 | 1010.9 |
| 20260505022029 | 64 | 169 | 2.0 | 4.0 | 0.00 | 0.00 | 0.00 | 52 | 1010.8 |
| 20260505021541 | 65 | 157 | 2.0 | 4.0 | 0.00 | 0.00 | 0.00 | 52 | 1010.8 |
| 20260505021029 | 65 | 197 | 1.0 | 4.0 | 0.00 | 0.00 | 0.00 | 51 | 1010.7 |
| 20260505020531 | 65 | 161 | 2.0 | 5.0 | 0.00 | 0.00 | 0.00 | 50 | 1010.6 |
| 20260505020039 | 66 | 186 | 1.0 | 5.0 | 0.00 | 0.00 | 0.00 | 49 | 1010.6 |
| 20260505015532 | 66 | 164 | 2.0 | 6.0 | 0.00 | 0.00 | 0.00 | 49 | 1010.5 |
| 20260505015033 | 66 | 137 | 3.0 | 6.0 | 0.00 | 0.00 | 0.00 | 49 | 1010.6 |
| 20260505014546 | 66 | 176 | 2.0 | 5.0 | 0.00 | 0.00 | 0.00 | 49 | 1010.6 |
| 20260505014033 | 66 | 221 | 2.0 | 7.0 | 0.00 | 0.00 | 0.00 | 49 | 1010.6 |
| 20260505013530 | 66 | 174 | 3.0 | 7.0 | 0.00 | 0.00 | 0.00 | 48 | 1010.5 |
| 20260505013059 | 66 | 192 | 4.0 | 7.0 | 0.00 | 0.00 | 0.00 | 48 | 1010.3 |
| 20260505012530 | 66 | 175 | 1.0 | 8.0 | 0.00 | 0.00 | 0.00 | 48 | 1010.2 |
| 20260505012031 | 66 | 153 | 4.0 | 8.0 | 0.00 | 0.00 | 0.00 | 48 | 1010.1 |
| 20260505011544 | 66 | 195 | 3.0 | 8.0 | 0.00 | 0.00 | 0.00 | 47 | 1010.0 |
| 20260505011030 | 67 | 155 | 2.0 | 8.0 | 0.00 | 0.00 | 0.00 | 47 | 1010.1 |
| 20260505010530 | 67 | 183 | 4.0 | 8.0 | 0.00 | 0.00 | 0.00 | 46 | 1010.0 |
| 20260505010041 | 67 | 165 | 4.0 | 9.0 | 0.00 | 0.00 | 0.00 | 46 | 1010.0 |
| 20260505005534 | 67 | 150 | 3.0 | 10.0 | 0.00 | 0.00 | 0.00 | 45 | 1010.0 |
| 20260505005031 | 67 | 157 | 6.0 | 10.0 | 0.00 | 0.00 | 0.00 | 45 | 1009.9 |
| 20260505004550 | 68 | 144 | 4.0 | 9.0 | 0.00 | 0.00 | 0.00 | 45 | 1009.9 |
| 20260505004031 | 68 | 178 | 4.0 | 9.0 | 0.00 | 0.00 | 0.00 | 44 | 1009.9 |
| 20260505003533 | 68 | 201 | 5.0 | 9.0 | 0.00 | 0.00 | 0.00 | 44 | 1009.9 |
| 20260505003041 | 68 | 136 | 5.0 | 9.0 | 0.00 | 0.00 | 0.00 | 44 | 1009.9 |
| 20260505002530 | 68 | 175 | 5.0 | 11.0 | 0.00 | 0.00 | 0.00 | 44 | 1010.0 |
| 20260505002031 | 68 | 169 | 4.0 | 11.0 | 0.00 | 0.00 | 0.00 | 44 | 1010.0 |
| 20260505001541 | 68 | 136 | 4.0 | 8.0 | 0.00 | 0.00 | 0.00 | 43 | 1009.9 |
| 20260505001034 | 68 | 169 | 3.0 | 8.0 | 0.00 | 0.00 | 0.00 | 43 | 1009.9 |
| 20260505000533 | 69 | 142 | 4.0 | 8.0 | 0.00 | 0.00 | 0.00 | 43 | 1010.1 |
| 20260505000053 | 69 | 139 | 4.0 | 11.0 | 0.00 | 0.00 | 0.00 | 42 | 1010.0 |
| 20260504235530 | 69 | 178 | 4.0 | 11.0 | 0.00 | 0.00 | 0.00 | 42 | 1009.9 |
| 20260504235031 | 69 | 146 | 4.0 | 10.0 | 0.00 | 0.00 | 0.00 | 41 | 1009.7 |
| 20260504234540 | 70 | 182 | 5.0 | 10.0 | 0.00 | 0.00 | 0.00 | 40 | 1009.8 |
| 20260504234031 | 70 | 138 | 5.0 | 12.0 | 0.00 | 0.00 | 0.00 | 40 | 1009.7 |
| 20260504233530 | 70 | 198 | 7.0 | 12.0 | 0.00 | 0.00 | 0.00 | 39 | 1009.7 |
| 20260504233041 | 71 | 185 | 6.0 | 17.0 | 0.00 | 0.00 | 0.00 | 39 | 1009.6 |
| 20260504232531 | 71 | 161 | 7.0 | 17.0 | 0.00 | 0.00 | 0.00 | 39 | 1009.7 |
| 20260504232030 | 71 | 159 | 7.0 | 14.0 | 0.00 | 0.00 | 0.00 | 38 | 1009.8 |
| 20260504231538 | 72 | 175 | 6.0 | 10.0 | 0.00 | 0.00 | 0.00 | 38 | 1009.7 |
| 20260504231030 | 72 | 185 | 5.0 | 10.0 | 0.00 | 0.00 | 0.00 | 38 | 1009.7 |
| 20260504230530 | 72 | 168 | 6.0 | 12.0 | 0.00 | 0.00 | 0.00 | 37 | 1009.7 |
| 20260504230041 | 72 | 182 | 5.0 | 12.0 | 0.00 | 0.00 | 0.00 | 37 | 1009.8 |
| 20260504225532 | 72 | 137 | 6.0 | 14.0 | 0.00 | 0.00 | 0.00 | 38 | 1009.8 |
| 20260504225027 | 72 | 159 | 5.0 | 16.0 | 0.00 | 0.00 | 0.00 | 37 | 1009.8 |
| 20260504224543 | 72 | 142 | 8.0 | 16.0 | 0.00 | 0.00 | 0.00 | 36 | 1009.9 |
| 20260504224026 | 72 | 192 | 6.0 | 11.0 | 0.00 | 0.00 | 0.00 | 36 | 1009.9 |
| 20260504223529 | 72 | 162 | 5.0 | 15.0 | 0.00 | 0.00 | 0.00 | 37 | 1009.9 |
| 20260504223044 | 73 | 126 | 8.0 | 15.0 | 0.00 | 0.00 | 0.00 | 36 | 1009.8 |
| 20260504222532 | 73 | 209 | 8.0 | 14.0 | 0.00 | 0.00 | 0.00 | 37 | 1009.8 |
| 20260504222027 | 73 | 207 | 5.0 | 13.0 | 0.00 | 0.00 | 0.00 | 37 | 1009.9 |
| 20260504221545 | 73 | 142 | 6.0 | 13.0 | 0.00 | 0.00 | 0.00 | 36 | 1009.8 |
| 20260504221027 | 73 | 149 | 4.0 | 11.0 | 0.00 | 0.00 | 0.00 | 38 | 1009.8 |
| 20260504220527 | 72 | 209 | 5.0 | 15.0 | 0.00 | 0.00 | 0.00 | 37 | 1009.9 |
| 20260504220046 | 72 | 176 | 6.0 | 15.0 | 0.00 | 0.00 | 0.00 | 37 | 1009.7 |
| 20260504215527 | 72 | 165 | 4.0 | 13.0 | 0.00 | 0.00 | 0.00 | 36 | 1009.8 |
| 20260504215029 | 72 | 171 | 6.0 | 13.0 | 0.00 | 0.00 | 0.00 | 36 | 1009.7 |
| 20260504214548 | 72 | 188 | 5.0 | 11.0 | 0.00 | 0.00 | 0.00 | 36 | 1009.8 |
| 20260504214026 | 72 | 168 | 3.0 | 13.0 | 0.00 | 0.00 | 0.00 | 37 | 1009.9 |
| 20260504213533 | 72 | 221 | 7.0 | 15.0 | 0.00 | 0.00 | 0.00 | 35 | 1009.9 |
| 20260504213042 | 73 | 239 | 6.0 | 14.0 | 0.00 | 0.00 | 0.00 | 35 | 1009.9 |
| 20260504212530 | 73 | 93 | 5.0 | 15.0 | 0.00 | 0.00 | 0.00 | 36 | 1009.9 |
| 20260504212031 | 73 | 155 | 7.0 | 18.0 | 0.00 | 0.00 | 0.00 | 35 | 1009.9 |
| 20260504211552 | 73 | 167 | 9.0 | 18.0 | 0.00 | 0.00 | 0.00 | 35 | 1009.9 |
| 20260504211030 | 73 | 150 | 8.0 | 15.0 | 0.00 | 0.00 | 0.00 | 36 | 1009.9 |
| 20260504210530 | 73 | 176 | 7.0 | 13.0 | 0.00 | 0.00 | 0.00 | 35 | 1010.0 |
| 20260504210046 | 73 | 159 | 4.0 | 13.0 | 0.00 | 0.00 | 0.00 | 37 | 1010.0 |
| 20260504205530 | 73 | 170 | 8.0 | 18.0 | 0.00 | 0.00 | 0.00 | 36 | 1009.8 |
| 20260504205029 | 73 | 170 | 6.0 | 19.0 | 0.00 | 0.00 | 0.00 | 37 | 1010.0 |
| 20260504204545 | 73 | 177 | 9.0 | 19.0 | 0.00 | 0.00 | 0.00 | 35 | 1009.9 |
| 20260504204030 | 73 | 237 | 5.0 | 15.0 | 0.00 | 0.00 | 0.00 | 37 | 1009.9 |
| 20260504203532 | 73 | 140 | 4.0 | 15.0 | 0.00 | 0.00 | 0.00 | 38 | 1009.9 |
| 20260504203042 | 73 | 227 | 7.0 | 14.0 | 0.00 | 0.00 | 0.00 | 37 | 1009.9 |
| 20260504202529 | 72 | 178 | 8.0 | 18.0 | 0.00 | 0.00 | 0.00 | 37 | 1010.0 |
| 20260504202029 | 72 | 162 | 7.0 | 18.0 | 0.00 | 0.00 | 0.00 | 37 | 1010.2 |
| 20260504201601 | 73 | 186 | 4.0 | 17.0 | 0.00 | 0.00 | 0.00 | 37 | 1010.2 |
| 20260504201033 | 72 | 148 | 7.0 | 17.0 | 0.00 | 0.00 | 0.00 | 38 | 1010.2 |
| 20260504200530 | 73 | 178 | 6.0 | 12.0 | 0.00 | 0.00 | 0.00 | 36 | 1010.2 |
| 20260504200047 | 73 | 301 | 3.0 | 12.0 | 0.00 | 0.00 | 0.00 | 36 | 1010.4 |
| 20260504195532 | 72 | 139 | 5.0 | 16.0 | 0.00 | 0.00 | 0.00 | 37 | 1010.6 |
| 20260504195031 | 72 | 184 | 3.0 | 16.0 | 0.00 | 0.00 | 0.00 | 40 | 1010.7 |
| 20260504194550 | 72 | 159 | 6.0 | 14.0 | 0.00 | 0.00 | 0.00 | 37 | 1010.7 |
| 20260504194032 | 73 | 263 | 4.0 | 11.0 | 0.00 | 0.00 | 0.00 | 37 | 1010.8 |
| 20260504193534 | 72 | 188 | 6.0 | 9.0 | 0.00 | 0.00 | 0.00 | 37 | 1010.8 |
| 20260504193044 | 72 | 207 | 2.0 | 15.0 | 0.00 | 0.00 | 0.00 | 37 | 1010.8 |
| 20260504192532 | 71 | 199 | 7.0 | 15.0 | 0.00 | 0.00 | 0.00 | 38 | 1011.0 |
| 20260504192032 | 71 | 198 | 4.0 | 12.0 | 0.00 | 0.00 | 0.00 | 39 | 1011.2 |
| 20260504191554 | 71 | 184 | 7.0 | 15.0 | 0.00 | 0.00 | 0.00 | 37 | 1011.1 |
| 20260504191031 | 71 | 222 | 5.0 | 15.0 | 0.00 | 0.00 | 0.00 | 37 | 1011.2 |
| 20260504190534 | 71 | 244 | 6.0 | 13.0 | 0.00 | 0.00 | 0.00 | 41 | 1011.2 |
| 20260504190038 | 71 | 184 | 6.0 | 13.0 | 0.00 | 0.00 | 0.00 | 37 | 1011.3 |
| 20260504185531 | 71 | 193 | 3.0 | 14.0 | 0.00 | 0.00 | 0.00 | 38 | 1011.4 |
| 20260504185031 | 70 | 231 | 5.0 | 14.0 | 0.00 | 0.00 | 0.00 | 37 | 1011.4 |
| 20260504184552 | 70 | 159 | 7.0 | 15.0 | 0.00 | 0.00 | 0.00 | 37 | 1011.6 |
| 20260504184032 | 71 | 194 | 5.0 | 15.0 | 0.00 | 0.00 | 0.00 | 37 | 1011.8 |
| 20260504183532 | 71 | 169 | 4.0 | 12.0 | 0.00 | 0.00 | 0.00 | 40 | 1011.8 |
| 20260504183045 | 70 | 234 | 6.0 | 12.0 | 0.00 | 0.00 | 0.00 | 36 | 1011.9 |
| 20260504182532 | 70 | 205 | 4.0 | 12.0 | 0.00 | 0.00 | 0.00 | 39 | 1011.9 |
| 20260504182031 | 70 | 270 | 5.0 | 12.0 | 0.00 | 0.00 | 0.00 | 38 | 1011.9 |